Reid Restricted Landing Area

Jump to: basic info | weather | runways | comments

Related pages: nearby airports | nearby navaids | notams | map

Basic information (top)

Codes: 6IL6
Location: lon 42.118401, lat -88.407898, elev 920 ft / 280 m msl
Status: small_airport

Weather (top)

Current conditions for Dupage Airport 15nm (27km) SSE (rec'd 2014/12/21 06:30Z):

KDPA 210630Z 18007KT 8SM FEW023 OVC042 00/M03 A3022 RMK AO2 T00001028

Airport forecast for Dupage Airport 15nm (27km) SSE (rec'd 2014/12/21 06:36Z):

TAF KDPA 210535Z 2106/2206 17005KT P6SM SCT025 OVC040 
     FM211000 17006KT P6SM OVC015 
     FM211600 17012KT P6SM OVC015 
     FM220000 16011KT P6SM OVC025

Runways (top)

E/W: 3,000 x 105 ft (914 x 32 m) — grass — not lighted

N/S: 2,100 x 105 ft (640 x 32 m) — grass — not lighted

Latest comments (top)

No comments yet for Reid Restricted Landing Area

More... (top)

See also NOTAMs and nearby airports and navaids, or visit the Reid Restricted Landing Area page at the main OurAirports website..